Time;durP1;ratioP1;P1;durP2;ratioP2;P2;SDS_P1;SDS_P2;PMS_P1;PMS_P2;Temp;Humidity;BMP_temperature;BMP_pressure;BME280_temperature;BME280_humidity;BME280_pressure;Samples;Min_cycle;Max_cycle;Signal;HPM_P1;HPM_P2
2022/07/10 00:01:51;;;;;;;1.87;0.60;;;14.30;99.90;;;;;;4216134;28;20209;-75
2022/07/10 00:03:54;;;;;;;4.23;0.90;;;14.30;99.90;;;;;;4221001;28;20673;-75
2022/07/10 00:05:56;;;;;;;2.27;1.07;;;14.30;99.90;;;;;;4220552;28;20291;-75
2022/07/10 00:07:58;;;;;;;1.50;0.70;;;14.30;99.90;;;;;;4218036;28;20675;-75
2022/07/10 00:10:00;;;;;;;2.13;0.60;;;14.30;99.90;;;;;;4223908;28;20209;-75
2022/07/10 00:12:05;;;;;;;2.07;0.70;;;14.30;99.90;;;;;;4211038;28;20586;-75
2022/07/10 00:14:09;;;;;;;3.67;0.63;;;14.30;99.90;;;;;;4220338;28;20224;-75
2022/07/10 00:16:11;;;;;;;1.33;0.57;;;14.30;99.90;;;;;;4229190;28;20211;-75
2022/07/10 00:18:13;;;;;;;1.83;0.70;;;14.30;99.90;;;;;;4224500;28;20205;-75
2022/07/10 00:20:16;;;;;;;3.00;0.70;;;14.30;99.90;;;;;;4221438;28;20213;-75
2022/07/10 00:22:17;;;;;;;2.37;0.70;;;14.30;99.90;;;;;;4215515;28;20609;-75
2022/07/10 00:24:19;;;;;;;6.93;0.70;;;14.30;99.90;;;;;;4217032;28;20576;-75
2022/07/10 00:26:21;;;;;;;2.93;0.80;;;14.30;99.90;;;;;;4218619;28;20209;-75
2022/07/10 00:28:24;;;;;;;3.47;0.80;;;14.30;99.90;;;;;;4220150;28;20204;-75
2022/07/10 00:30:26;;;;;;;3.57;0.63;;;14.30;99.90;;;;;;4223184;28;20236;-75
2022/07/10 00:32:28;;;;;;;3.10;0.73;;;14.30;99.90;;;;;;4218466;28;20236;-75
2022/07/10 00:34:30;;;;;;;1.60;0.70;;;14.30;99.90;;;;;;4219079;28;20205;-75
2022/07/10 00:36:32;;;;;;;1.63;0.90;;;14.30;99.90;;;;;;4219613;28;20205;-75
2022/07/10 00:38:34;;;;;;;4.00;0.60;;;14.20;99.90;;;;;;4226724;28;20215;-75
2022/07/10 00:40:36;;;;;;;2.63;0.70;;;14.20;99.90;;;;;;4218198;28;20224;-75
2022/07/10 00:42:38;;;;;;;1.90;0.60;;;14.30;99.90;;;;;;4223719;28;20327;-76
2022/07/10 00:44:42;;;;;;;1.40;0.80;;;14.20;99.90;;;;;;4215767;28;20207;-75
2022/07/10 00:46:44;;;;;;;1.87;0.83;;;14.20;99.90;;;;;;4220035;28;20208;-75
2022/07/10 00:48:46;;;;;;;2.50;0.70;;;14.20;99.90;;;;;;4217510;28;20291;-75
2022/07/10 00:50:48;;;;;;;2.17;0.90;;;14.20;99.90;;;;;;4215378;28;20216;-76
2022/07/10 00:52:50;;;;;;;1.27;0.57;;;14.20;99.90;;;;;;4219835;28;20588;-76
2022/07/10 00:54:52;;;;;;;2.83;0.67;;;14.10;99.90;;;;;;4220182;28;20225;-75
2022/07/10 00:56:55;;;;;;;3.60;0.80;;;14.10;99.90;;;;;;4221864;28;20208;-75
2022/07/10 00:58:57;;;;;;;2.63;0.60;;;14.10;99.90;;;;;;4219954;28;20575;-76
2022/07/10 01:01:01;;;;;;;3.13;0.90;;;14.10;99.90;;;;;;4219205;28;20215;-76
2022/07/10 01:03:03;;;;;;;3.17;0.90;;;14.10;99.90;;;;;;4214955;28;20630;-76
2022/07/10 01:05:05;;;;;;;4.33;0.80;;;14.10;99.90;;;;;;4221824;28;20205;-76
2022/07/10 01:07:07;;;;;;;4.93;0.87;;;14.10;99.90;;;;;;4214432;28;20740;-74
2022/07/10 01:09:09;;;;;;;4.80;0.70;;;14.00;99.90;;;;;;4216208;28;20296;-74
2022/07/10 01:11:11;;;;;;;3.17;0.73;;;14.00;99.90;;;;;;4225774;27;20217;-76
2022/07/10 01:13:13;;;;;;;2.37;0.90;;;14.00;99.90;;;;;;4219446;27;20327;-74
2022/07/10 01:15:15;;;;;;;3.43;0.67;;;14.00;99.90;;;;;;4220747;28;20609;-75
2022/07/10 01:17:19;;;;;;;1.80;0.63;;;14.00;99.90;;;;;;4215372;28;20239;-75
2022/07/10 01:19:21;;;;;;;4.20;0.83;;;14.00;99.90;;;;;;4216068;28;20253;-76
2022/07/10 01:21:29;;;;;;;5.60;1.13;;;13.90;99.90;;;;;;4221246;28;20717;-75
2022/07/10 01:23:30;;;;;;;3.87;0.70;;;14.00;99.90;;;;;;4222340;28;20748;-76
2022/07/10 01:25:32;;;;;;;3.50;0.63;;;13.90;99.90;;;;;;4217337;28;20259;-78
2022/07/10 01:27:34;;;;;;;3.63;0.80;;;13.90;99.90;;;;;;4214674;28;20245;-75
2022/07/10 01:29:37;;;;;;;4.33;0.90;;;13.90;99.90;;;;;;4226275;28;20700;-76
2022/07/10 01:31:39;;;;;;;3.23;0.80;;;13.90;99.90;;;;;;4216904;28;20208;-77
2022/07/10 01:33:42;;;;;;;2.73;0.80;;;13.90;99.90;;;;;;4224702;28;20334;-75
2022/07/10 01:35:44;;;;;;;2.97;0.83;;;13.90;99.90;;;;;;4214819;28;20278;-74
2022/07/10 01:37:48;;;;;;;3.93;0.80;;;13.80;99.90;;;;;;4222117;28;20262;-75
2022/07/10 01:39:49;;;;;;;4.63;0.90;;;13.80;99.90;;;;;;4217475;28;20226;-74
2022/07/10 01:41:51;;;;;;;2.50;0.67;;;13.80;99.90;;;;;;4219183;28;20213;-75
2022/07/10 01:43:54;;;;;;;2.13;0.70;;;13.80;99.90;;;;;;4219075;28;20201;-75
2022/07/10 01:45:56;;;;;;;4.87;0.90;;;13.80;99.90;;;;;;4218862;28;20692;-75
2022/07/10 01:47:58;;;;;;;3.73;0.90;;;13.70;99.90;;;;;;4218275;28;20593;-74
2022/07/10 01:50:00;;;;;;;1.90;0.97;;;13.70;99.90;;;;;;4219474;28;20828;-75
2022/07/10 01:52:01;;;;;;;2.40;0.60;;;13.70;99.90;;;;;;4222005;28;20208;-75
2022/07/10 01:54:05;;;;;;;1.93;0.80;;;13.70;99.90;;;;;;4219975;28;20685;-76
2022/07/10 01:56:08;;;;;;;5.43;0.80;;;13.70;99.90;;;;;;4215185;28;20208;-75
2022/07/10 01:58:10;;;;;;;3.30;0.83;;;13.70;99.90;;;;;;4208642;28;20316;-74
2022/07/10 02:00:13;;;;;;;2.00;0.63;;;13.70;99.90;;;;;;4215625;28;20681;-74
2022/07/10 04:18:52;;;;;;;1.47;0.80;;;13.40;99.90;;;;;;4229805;27;20210;-75
2022/07/10 04:20:54;;;;;;;4.57;1.10;;;13.40;99.90;;;;;;4240567;27;20639;-77
2022/07/10 04:22:57;;;;;;;3.50;0.90;;;13.40;99.90;;;;;;4239960;27;20230;-74
2022/07/10 04:25:00;;;;;;;3.40;0.63;;;13.40;99.90;;;;;;4221415;28;20266;-75
2022/07/10 04:27:02;;;;;;;5.27;1.00;;;13.40;99.90;;;;;;4240393;27;20199;-77
2022/07/10 04:29:04;;;;;;;3.17;0.80;;;13.30;99.90;;;;;;4241608;27;20253;-74
2022/07/10 04:31:06;;;;;;;1.50;0.70;;;13.40;99.90;;;;;;4224663;28;20262;-75
2022/07/10 04:33:08;;;;;;;4.27;0.90;;;13.40;99.90;;;;;;4240232;27;20762;-75
2022/07/10 04:35:10;;;;;;;3.80;1.00;;;13.40;99.90;;;;;;4228321;27;20283;-75
2022/07/10 04:37:12;;;;;;;3.57;1.00;;;13.40;99.90;;;;;;4215406;28;20201;-75
2022/07/10 04:39:17;;;;;;;5.43;1.23;;;13.40;99.90;;;;;;4231665;27;20210;-75
2022/07/10 04:41:20;;;;;;;7.30;1.00;;;13.40;99.90;;;;;;4218478;28;20235;-74
2022/07/10 04:43:22;;;;;;;2.63;0.70;;;13.40;99.90;;;;;;4239097;22;20232;-77
2022/07/10 04:45:24;;;;;;;4.80;0.97;;;13.40;99.90;;;;;;4216339;28;20208;-77
2022/07/10 04:47:26;;;;;;;7.37;1.00;;;13.40;99.90;;;;;;4220199;28;20204;-78
2022/07/10 04:49:28;;;;;;;4.37;0.70;;;13.30;99.90;;;;;;4223127;28;20545;-77
2022/07/10 04:51:30;;;;;;;6.37;0.97;;;13.30;99.90;;;;;;4219560;28;20398;-77
2022/07/10 04:53:32;;;;;;;2.20;0.87;;;13.30;99.90;;;;;;4224613;28;20231;-77
2022/07/10 04:55:34;;;;;;;1.23;0.60;;;13.30;99.90;;;;;;4219953;28;20283;-77
2022/07/10 04:57:38;;;;;;;3.73;0.80;;;13.30;99.90;;;;;;4218043;28;20236;-78
2022/07/10 04:59:40;;;;;;;2.53;0.97;;;13.20;99.90;;;;;;4216820;28;20216;-77
2022/07/10 05:01:42;;;;;;;4.47;0.90;;;13.20;99.90;;;;;;4213861;28;20839;-77
2022/07/10 05:03:44;;;;;;;1.93;0.67;;;13.20;99.90;;;;;;4212229;28;20227;-77
2022/07/10 05:05:47;;;;;;;2.47;0.63;;;13.10;99.90;;;;;;4197887;28;20208;-77
2022/07/10 05:07:48;;;;;;;4.30;0.90;;;13.10;99.90;;;;;;4212463;28;20235;-77
2022/07/10 05:09:50;;;;;;;3.10;0.60;;;13.10;99.90;;;;;;4217379;28;20232;-78
2022/07/10 05:11:52;;;;;;;1.50;0.60;;;13.10;99.90;;;;;;4223684;28;20359;-77
2022/07/10 05:13:56;;;;;;;1.97;0.70;;;13.10;99.90;;;;;;4214825;28;20229;-77
2022/07/10 05:15:58;;;;;;;2.73;0.77;;;13.10;99.90;;;;;;4216994;28;20824;-78
2022/07/10 05:18:00;;;;;;;1.67;0.63;;;13.10;99.90;;;;;;4222325;28;20236;-77
2022/07/10 05:20:02;;;;;;;0.70;0.70;;;13.10;99.90;;;;;;4223199;28;20238;-77
2022/07/10 05:22:04;;;;;;;2.93;1.00;;;13.10;99.90;;;;;;4219302;28;20219;-77
2022/07/10 05:24:07;;;;;;;7.93;1.00;;;13.10;99.90;;;;;;4220460;28;20211;-77
2022/07/10 05:26:08;;;;;;;2.50;0.93;;;13.10;99.90;;;;;;4219017;28;20199;-77
2022/07/10 05:28:12;;;;;;;2.80;0.80;;;13.10;99.90;;;;;;4214266;28;20204;-77
2022/07/10 05:30:16;;;;;;;2.83;0.80;;;13.10;99.90;;;;;;4223735;28;20337;-77
2022/07/10 05:32:18;;;;;;;2.40;0.70;;;13.10;99.90;;;;;;4224356;28;20223;-77
2022/07/10 05:34:22;;;;;;;2.97;0.87;;;13.10;99.90;;;;;;4224685;28;20207;-78
2022/07/10 05:36:25;;;;;;;4.63;1.10;;;13.00;99.90;;;;;;4213882;28;20212;-78
2022/07/10 05:38:27;;;;;;;2.47;0.97;;;13.00;99.90;;;;;;4217281;28;20211;-75
2022/07/10 05:40:29;;;;;;;2.53;0.90;;;13.00;99.90;;;;;;4219798;28;20204;-75
2022/07/10 05:42:31;;;;;;;3.13;1.00;;;12.90;99.90;;;;;;4218896;28;20280;-75
2022/07/10 05:44:33;;;;;;;4.27;1.00;;;12.90;99.90;;;;;;4219207;28;20275;-74
2022/07/10 05:46:36;;;;;;;2.50;1.00;;;12.90;99.90;;;;;;4218834;28;20256;-74
2022/07/10 05:48:39;;;;;;;2.40;1.00;;;12.80;99.90;;;;;;4219426;28;20195;-74
2022/07/10 05:50:41;;;;;;;1.47;0.80;;;12.80;99.90;;;;;;4218217;28;20205;-75
2022/07/10 05:52:43;;;;;;;4.90;0.97;;;12.80;99.90;;;;;;4221958;28;20751;-74
2022/07/10 05:54:45;;;;;;;4.83;1.07;;;12.70;99.90;;;;;;4223941;28;20268;-73
2022/07/10 05:56:47;;;;;;;3.60;1.13;;;12.60;99.90;;;;;;4218175;28;20239;-76
2022/07/10 05:58:49;;;;;;;2.50;1.20;;;12.60;99.90;;;;;;4218907;28;20252;-74
2022/07/10 06:00:51;;;;;;;5.60;1.10;;;12.50;99.90;;;;;;4215131;28;20212;-74
2022/07/10 06:02:55;;;;;;;3.87;1.30;;;12.50;99.90;;;;;;4221152;28;20232;-74
2022/07/10 06:04:57;;;;;;;4.40;1.20;;;12.50;99.90;;;;;;4216907;28;20227;-74
2022/07/10 06:06:59;;;;;;;3.50;1.03;;;12.50;99.90;;;;;;4219023;28;20262;-74
2022/07/10 06:09:00;;;;;;;2.30;1.13;;;12.40;99.90;;;;;;4220225;28;20289;-74
2022/07/10 06:11:02;;;;;;;1.57;1.00;;;12.40;99.90;;;;;;4217978;28;20264;-73
2022/07/10 06:13:04;;;;;;;3.30;1.10;;;12.40;99.90;;;;;;4218903;28;20230;-74
2022/07/10 06:15:07;;;;;;;2.43;1.00;;;12.40;99.90;;;;;;4219101;28;20362;-73
2022/07/10 06:17:09;;;;;;;1.40;0.90;;;12.30;99.90;;;;;;4216767;28;20253;-73
2022/07/10 06:19:12;;;;;;;3.23;1.13;;;12.30;99.90;;;;;;4222017;28;20216;-73
2022/07/10 06:21:14;;;;;;;2.03;1.00;;;12.30;99.90;;;;;;4218996;28;20387;-74
2022/07/10 06:23:16;;;;;;;3.83;1.00;;;12.30;99.90;;;;;;4219901;28;20224;-74
2022/07/10 06:25:18;;;;;;;4.10;1.00;;;12.30;99.90;;;;;;4212587;28;20298;-73
2022/07/10 06:27:20;;;;;;;4.13;1.30;;;12.30;99.90;;;;;;4223114;28;20657;-73
2022/07/10 06:29:22;;;;;;;5.17;1.00;;;12.30;99.90;;;;;;4211045;28;20204;-74
2022/07/10 06:31:24;;;;;;;4.23;0.97;;;12.30;99.90;;;;;;4216521;28;20218;-74
2022/07/10 06:33:26;;;;;;;6.30;1.37;;;12.30;99.90;;;;;;4219567;28;20228;-74
2022/07/10 06:35:29;;;;;;;1.20;0.90;;;12.30;99.90;;;;;;4218410;28;20331;-74
2022/07/10 06:37:32;;;;;;;3.50;1.00;;;12.30;99.90;;;;;;4219074;28;20198;-74
2022/07/10 06:39:35;;;;;;;1.17;1.00;;;12.30;99.90;;;;;;4218000;28;20639;-73
2022/07/10 06:41:37;;;;;;;2.20;0.93;;;12.20;99.90;;;;;;4219692;28;20223;-74
2022/07/10 06:43:38;;;;;;;4.33;1.30;;;12.30;99.90;;;;;;4216347;28;20296;-74
2022/07/10 06:45:44;;;;;;;1.87;1.10;;;12.30;99.90;;;;;;4223088;28;20256;-73
2022/07/10 06:47:58;;;;;;;3.10;1.30;;;12.30;99.90;;;;;;4227471;28;20213;-73
2022/07/10 06:50:00;;;;;;;3.73;1.13;;;12.40;99.90;;;;;;4212458;28;20207;-73
2022/07/10 06:52:05;;;;;;;2.40;1.10;;;12.40;99.90;;;;;;4216696;28;20204;-74
2022/07/10 06:54:07;;;;;;;1.10;1.00;;;12.40;99.90;;;;;;4224751;28;20206;-73
2022/07/10 06:56:09;;;;;;;1.67;1.10;;;12.50;99.90;;;;;;4219970;28;20327;-72
2022/07/10 06:58:11;;;;;;;2.70;1.20;;;12.50;99.90;;;;;;4218988;28;20769;-74
2022/07/10 07:00:13;;;;;;;2.30;1.23;;;12.60;99.90;;;;;;4220831;28;20233;-74
2022/07/10 07:02:15;;;;;;;2.20;1.13;;;12.60;99.90;;;;;;4221684;28;20210;-74
2022/07/10 07:04:17;;;;;;;3.10;1.30;;;12.60;99.90;;;;;;4225759;28;20278;-74
2022/07/10 07:06:19;;;;;;;3.90;1.50;;;12.70;99.90;;;;;;4222332;28;20208;-74
2022/07/10 07:08:22;;;;;;;2.03;1.17;;;12.70;99.90;;;;;;4227191;28;20215;-73
2022/07/10 07:10:24;;;;;;;2.10;1.20;;;12.80;99.90;;;;;;4218385;28;20229;-73
2022/07/10 07:12:26;;;;;;;2.07;1.30;;;12.90;99.90;;;;;;4227515;28;20204;-74
2022/07/10 07:14:28;;;;;;;6.83;1.70;;;13.00;99.90;;;;;;4228181;28;20199;-74
2022/07/10 07:16:41;;;;;;;4.23;1.50;;;13.00;99.90;;;;;;4231183;28;20220;-74
2022/07/10 07:18:49;;;;;;;4.60;1.53;;;13.10;99.90;;;;;;4216464;28;20200;-74
2022/07/10 07:23:09;;;;;;;3.07;1.37;;;13.20;99.90;;;;;;4219963;28;20232;-74
2022/07/10 07:25:13;;;;;;;2.77;1.40;;;13.20;99.90;;;;;;4216870;28;20850;-74
2022/07/10 07:27:15;;;;;;;1.03;0.97;;;13.30;99.90;;;;;;4219365;28;20205;-74
2022/07/10 07:29:17;;;;;;;2.33;1.20;;;13.30;99.90;;;;;;4221604;28;20212;-74
2022/07/10 07:31:20;;;;;;;4.53;1.37;;;13.30;99.90;;;;;;4220901;28;20231;-74
2022/07/10 07:33:21;;;;;;;3.67;1.37;;;13.40;99.90;;;;;;4219299;28;20232;-75
2022/07/10 07:35:23;;;;;;;4.10;1.67;;;13.30;99.90;;;;;;4217730;28;20763;-74
2022/07/10 07:37:36;;;;;;;3.83;1.20;;;13.30;99.90;;;;;;4218508;28;20725;-74
2022/07/10 07:39:38;;;;;;;3.27;1.40;;;13.30;99.90;;;;;;4217230;28;20230;-74
2022/07/10 07:41:41;;;;;;;3.10;1.13;;;13.30;99.90;;;;;;4217676;28;20205;-74
2022/07/10 07:43:43;;;;;;;2.63;1.13;;;13.30;99.90;;;;;;4223367;28;20262;-77
2022/07/10 07:45:47;;;;;;;3.33;1.40;;;13.40;99.90;;;;;;4223668;28;20255;-76
2022/07/10 07:47:51;;;;;;;2.63;1.10;;;13.40;99.90;;;;;;4217767;28;20578;-77
2022/07/10 07:49:53;;;;;;;2.97;1.20;;;13.50;99.90;;;;;;4221178;28;20674;-76
2022/07/10 07:51:55;;;;;;;2.80;1.27;;;13.50;99.90;;;;;;4221257;28;20220;-77
2022/07/10 07:53:57;;;;;;;5.30;1.67;;;13.60;99.90;;;;;;4219002;28;20227;-76
2022/07/10 07:55:59;;;;;;;1.63;1.00;;;13.70;99.90;;;;;;4222173;28;20224;-77
2022/07/10 07:58:03;;;;;;;2.63;1.30;;;13.70;99.90;;;;;;4222122;28;20204;-76
2022/07/10 08:00:08;;;;;;;1.53;1.10;;;13.80;99.90;;;;;;4219851;28;20801;-76
2022/07/10 08:02:10;;;;;;;2.90;1.20;;;13.90;99.90;;;;;;4218822;28;20223;-77
2022/07/10 08:04:12;;;;;;;3.53;1.83;;;14.00;99.90;;;;;;4217235;28;20202;-76
2022/07/10 08:06:14;;;;;;;6.70;2.73;;;14.10;99.90;;;;;;4220788;28;20556;-75
2022/07/10 08:08:16;;;;;;;3.43;1.90;;;14.20;99.90;;;;;;4222646;28;20206;-76
2022/07/10 08:10:19;;;;;;;3.57;1.47;;;14.20;99.90;;;;;;4214494;28;20247;-77
2022/07/10 08:12:21;;;;;;;3.97;1.20;;;14.30;99.90;;;;;;4226435;28;20244;-76
2022/07/10 08:14:24;;;;;;;5.43;1.47;;;14.30;99.90;;;;;;4224167;28;20207;-77
2022/07/10 08:16:26;;;;;;;3.17;1.10;;;14.40;99.90;;;;;;4221426;28;20654;-76
2022/07/10 08:18:28;;;;;;;2.87;1.10;;;14.30;99.90;;;;;;4222550;28;20714;-75
2022/07/10 08:20:30;;;;;;;2.90;1.20;;;14.30;99.90;;;;;;4225505;28;20200;-77
2022/07/10 08:22:33;;;;;;;3.17;1.10;;;14.30;99.90;;;;;;4223399;28;20332;-76
2022/07/10 08:24:34;;;;;;;2.30;1.17;;;14.30;99.90;;;;;;4220477;28;20200;-76
2022/07/10 08:26:36;;;;;;;2.70;1.10;;;14.30;99.90;;;;;;4221519;28;20219;-77
2022/07/10 08:28:39;;;;;;;2.70;1.03;;;14.40;99.90;;;;;;4221303;28;20237;-77
2022/07/10 08:30:42;;;;;;;2.50;1.00;;;14.40;99.90;;;;;;4221255;28;20275;-77
2022/07/10 08:32:44;;;;;;;3.27;1.00;;;14.50;99.90;;;;;;4217504;28;20408;-78
2022/07/10 08:34:48;;;;;;;3.03;1.10;;;14.50;99.90;;;;;;4229071;28;20205;-75
2022/07/10 08:36:50;;;;;;;2.80;1.03;;;14.50;99.90;;;;;;4225993;28;20216;-76
2022/07/10 08:38:53;;;;;;;5.50;1.33;;;14.50;99.90;;;;;;4224096;28;20262;-75
2022/07/10 08:40:57;;;;;;;3.67;1.27;;;14.60;99.90;;;;;;4215182;28;20902;-77
2022/07/10 08:42:59;;;;;;;5.57;1.10;;;14.70;99.90;;;;;;4225610;28;20261;-77
2022/07/10 08:45:01;;;;;;;4.43;0.97;;;14.70;99.90;;;;;;4224268;28;20204;-77
2022/07/10 08:47:06;;;;;;;2.07;1.00;;;14.80;99.90;;;;;;4221466;28;20621;-76
2022/07/10 08:49:11;;;;;;;4.90;1.17;;;14.90;99.90;;;;;;4222029;28;20217;-76
2022/07/10 08:51:16;;;;;;;3.63;1.17;;;15.00;99.90;;;;;;4216354;28;20714;-75
2022/07/10 08:53:25;;;;;;;2.93;1.30;;;15.00;99.90;;;;;;4221432;28;20305;-77
2022/07/10 08:55:28;;;;;;;3.63;1.50;;;15.10;99.90;;;;;;4215354;28;20658;-74
2022/07/10 08:57:31;;;;;;;5.87;1.50;;;15.10;99.90;;;;;;4215142;28;20278;-77
2022/07/10 08:59:33;;;;;;;2.80;1.07;;;15.10;99.90;;;;;;4226526;28;20634;-76
2022/07/10 09:01:35;;;;;;;3.93;1.17;;;15.10;99.90;;;;;;4208265;28;20205;-76
2022/07/10 09:03:38;;;;;;;3.83;1.53;;;15.10;99.90;;;;;;4216752;28;20277;-76
2022/07/10 09:05:40;;;;;;;1.63;1.00;;;15.20;99.90;;;;;;4227258;28;20638;-77
2022/07/10 09:07:43;;;;;;;3.90;1.23;;;15.20;99.90;;;;;;4222287;28;20204;-77
2022/07/10 09:09:55;;;;;;;4.43;1.00;;;15.30;99.90;;;;;;4220219;28;20653;-77
2022/07/10 09:11:58;;;;;;;7.30;1.10;;;15.40;99.90;;;;;;4222474;28;20216;-75
2022/07/10 09:14:04;;;;;;;5.73;1.20;;;15.40;99.90;;;;;;4221132;28;20215;-76
2022/07/10 09:16:07;;;;;;;3.20;1.13;;;15.60;99.90;;;;;;4219238;28;20729;-76
2022/07/10 09:18:09;;;;;;;2.73;0.90;;;15.60;99.90;;;;;;4222542;28;20246;-76
2022/07/10 09:20:25;;;;;;;6.10;1.47;;;15.60;99.90;;;;;;4217162;28;20216;-77
2022/07/10 09:22:31;;;;;;;2.67;1.23;;;15.60;99.90;;;;;;4221953;28;20275;-77
2022/07/10 09:24:36;;;;;;;6.00;1.20;;;15.60;99.90;;;;;;4217859;28;20250;-76
2022/07/10 09:26:41;;;;;;;3.30;1.20;;;15.60;99.90;;;;;;4228354;28;20191;-76
2022/07/10 09:28:43;;;;;;;3.30;1.20;;;15.50;99.90;;;;;;4211164;28;20252;-77
2022/07/10 09:30:45;;;;;;;5.10;1.47;;;15.50;99.90;;;;;;4220846;28;20204;-77
2022/07/10 09:32:47;;;;;;;5.20;1.30;;;15.40;99.90;;;;;;4217328;28;20239;-76
2022/07/10 09:36:04;;;;;;;3.93;1.20;;;15.50;99.90;;;;;;4222679;28;20202;-76
2022/07/10 09:37:26;;;;;;;4.73;1.20;;;15.50;99.90;;;;;;4221246;28;20582;-76
2022/07/10 09:39:28;;;;;;;6.20;1.30;;;15.50;99.90;;;;;;4216723;28;20212;-76
2022/07/10 09:41:32;;;;;;;3.67;1.40;;;15.50;99.90;;;;;;4218788;28;20353;-76
2022/07/10 09:43:45;;;;;;;3.70;1.23;;;15.60;99.90;;;;;;4218527;28;20712;-76
2022/07/10 09:45:47;;;;;;;2.93;1.10;;;15.70;99.90;;;;;;4218924;28;20207;-77
2022/07/10 09:48:03;;;;;;;3.17;1.40;;;15.80;99.90;;;;;;4221402;28;20201;-76
2022/07/10 09:50:24;;;;;;;4.23;1.23;;;15.90;99.90;;;;;;4217321;28;20235;-77
2022/07/10 09:52:29;;;;;;;5.57;1.50;;;16.00;99.90;;;;;;4229684;27;20220;-77
2022/07/10 09:54:32;;;;;;;6.83;1.60;;;16.00;99.90;;;;;;4223902;28;20208;-77
2022/07/10 09:56:41;;;;;;;5.20;1.60;;;16.00;99.90;;;;;;4223612;28;20212;-76
2022/07/10 09:58:46;;;;;;;3.77;1.60;;;16.00;99.90;;;;;;4224727;28;20590;-76
2022/07/10 10:00:49;;;;;;;4.50;1.80;;;16.10;99.90;;;;;;4214059;28;20202;-77
2022/07/10 10:02:54;;;;;;;3.73;1.50;;;16.20;99.90;;;;;;4219030;28;20221;-77
2022/07/10 10:04:56;;;;;;;5.30;1.60;;;16.20;99.90;;;;;;4222591;28;20209;-77
2022/07/10 10:07:00;;;;;;;5.33;1.30;;;16.40;99.90;;;;;;4221222;28;20270;-77
2022/07/10 10:09:08;;;;;;;4.23;1.50;;;16.30;99.90;;;;;;4218834;28;20266;-77
2022/07/10 10:11:17;;;;;;;3.70;1.40;;;16.50;99.90;;;;;;4216740;28;20236;-75
2022/07/10 10:13:21;;;;;;;3.40;1.30;;;16.60;99.90;;;;;;4219180;28;20573;-76
2022/07/10 10:15:24;;;;;;;6.50;1.43;;;16.70;99.90;;;;;;4223063;28;20204;-77
2022/07/10 10:17:27;;;;;;;4.90;1.63;;;16.70;99.90;;;;;;4214896;28;20228;-77
2022/07/10 10:21:56;;;;;;;5.27;1.80;;;16.80;99.90;;;;;;4222589;28;20200;-78
2022/07/10 10:23:59;;;;;;;6.30;1.40;;;16.70;99.90;;;;;;4218498;28;20662;-78
2022/07/10 10:26:02;;;;;;;4.73;1.23;;;16.70;99.90;;;;;;4213954;28;20233;-77
2022/07/10 10:28:06;;;;;;;5.70;1.40;;;16.70;99.90;;;;;;4214917;28;20201;-77
2022/07/10 10:30:12;;;;;;;6.50;1.23;;;16.60;99.90;;;;;;4218894;28;20207;-77
2022/07/10 10:32:16;;;;;;;4.97;1.33;;;16.60;99.90;;;;;;4220231;28;20205;-77
2022/07/10 10:34:38;;;;;;;4.83;1.30;;;16.60;99.90;;;;;;4217541;28;20220;-77
2022/07/10 10:36:49;;;;;;;3.03;1.20;;;16.60;99.90;;;;;;4217339;28;20202;-78
2022/07/10 10:39:10;;;;;;;4.10;1.10;;;16.70;99.90;;;;;;4221597;28;20287;-78
2022/07/10 10:41:27;;;;;;;3.40;1.10;;;16.70;99.90;;;;;;4217485;28;20197;-77
2022/07/10 10:43:29;;;;;;;2.40;1.10;;;16.80;99.90;;;;;;4236741;22;20229;-75
2022/07/10 10:45:35;;;;;;;4.47;1.33;;;17.00;99.90;;;;;;4205381;28;20217;-75
2022/07/10 10:47:58;;;;;;;3.43;1.20;;;17.00;99.90;;;;;;4209523;28;20197;-76
2022/07/10 10:50:01;;;;;;;3.80;1.23;;;17.20;99.90;;;;;;4184828;28;20233;-75
2022/07/10 10:52:07;;;;;;;4.07;1.10;;;17.10;93.70;;;;;;4204768;28;20267;-75
2022/07/10 10:54:08;;;;;;;4.57;1.20;;;17.10;96.70;;;;;;4206385;28;20255;-76
2022/07/10 10:56:25;;;;;;;6.27;1.10;;;17.20;98.40;;;;;;4206223;28;20213;-76
2022/07/10 10:58:29;;;;;;;2.90;1.13;;;17.30;99.20;;;;;;4203762;28;20267;-76
2022/07/10 11:00:40;;;;;;;3.27;1.10;;;17.40;99.90;;;;;;4186221;28;20237;-75
2022/07/10 11:02:42;;;;;;;6.17;1.50;;;17.40;97.60;;;;;;4206523;28;20209;-76
2022/07/10 11:04:46;;;;;;;3.13;0.93;;;17.40;98.30;;;;;;4186759;28;20574;-75
2022/07/10 11:06:49;;;;;;;4.70;1.23;;;17.50;96.10;;;;;;4194444;28;20211;-75
2022/07/10 11:08:51;;;;;;;3.87;1.20;;;17.50;94.10;;;;;;4201162;28;20228;-76
2022/07/10 11:10:54;;;;;;;3.00;1.30;;;17.40;95.70;;;;;;4183226;28;20215;-75
2022/07/10 11:13:01;;;;;;;4.13;1.30;;;17.50;94.00;;;;;;4185864;28;20238;-75
2022/07/10 11:15:15;;;;;;;3.50;1.00;;;17.60;91.60;;;;;;4196391;28;20205;-75
2022/07/10 11:17:17;;;;;;;4.87;1.30;;;17.60;94.40;;;;;;4201976;28;20213;-75
2022/07/10 11:19:26;;;;;;;3.47;1.13;;;17.70;92.90;;;;;;4207632;28;20241;-75
2022/07/10 11:21:34;;;;;;;4.33;1.37;;;17.80;92.90;;;;;;4204981;28;20203;-75
2022/07/10 11:23:57;;;;;;;3.80;1.13;;;18.00;92.60;;;;;;4205058;28;20323;-75
2022/07/10 11:26:08;;;;;;;5.47;1.67;;;18.20;90.00;;;;;;4186678;28;20209;-76
2022/07/10 11:28:13;;;;;;;4.07;2.17;;;18.30;92.10;;;;;;4207157;28;20233;-75
2022/07/10 11:30:15;;;;;;;5.83;1.63;;;18.40;92.50;;;;;;4203990;28;20204;-76
2022/07/10 11:32:17;;;;;;;5.93;1.53;;;18.50;86.60;;;;;;4201411;28;20580;-76
2022/07/10 11:34:20;;;;;;;6.00;1.57;;;18.50;82.70;;;;;;4201373;28;20749;-76
2022/07/10 11:36:26;;;;;;;6.00;1.43;;;18.50;77.10;;;;;;4208297;28;20212;-75
2022/07/10 11:38:28;;;;;;;2.87;1.40;;;18.60;78.20;;;;;;4200135;28;20228;-76
2022/07/10 11:40:30;;;;;;;5.17;1.40;;;18.60;77.60;;;;;;4201099;28;20282;-76
2022/07/10 11:42:54;;;;;;;2.43;1.20;;;18.70;71.30;;;;;;4199954;28;20241;-75
2022/07/10 11:44:57;;;;;;;3.17;1.20;;;18.70;67.50;;;;;;4202672;28;20229;-75
2022/07/10 11:47:03;;;;;;;4.23;1.30;;;18.70;74.40;;;;;;4203883;28;20209;-75
2022/07/10 11:49:07;;;;;;;2.97;1.13;;;18.80;79.90;;;;;;4203865;28;20232;-75
2022/07/10 11:51:22;;;;;;;3.17;1.30;;;18.80;74.90;;;;;;4207777;28;20205;-76
2022/07/10 11:53:25;;;;;;;4.60;1.50;;;18.80;69.70;;;;;;4206446;28;20225;-76
2022/07/10 11:55:36;;;;;;;5.13;1.33;;;18.80;76.10;;;;;;4206309;28;20208;-75
2022/07/10 11:57:41;;;;;;;4.17;1.20;;;18.70;75.60;;;;;;4202745;28;20214;-75
2022/07/10 11:59:43;;;;;;;5.23;1.37;;;18.70;78.80;;;;;;4201016;28;20211;-77
2022/07/10 12:01:48;;;;;;;3.93;1.37;;;18.70;73.40;;;;;;4203871;28;20621;-77
2022/07/10 12:04:02;;;;;;;2.47;1.07;;;18.80;67.00;;;;;;4206478;28;20354;-76
2022/07/10 12:06:05;;;;;;;3.87;1.30;;;18.90;76.70;;;;;;4200319;28;20274;-76
2022/07/10 12:08:07;;;;;;;4.63;1.30;;;19.10;66.80;;;;;;4206861;28;20259;-77
2022/07/10 12:10:10;;;;;;;4.07;1.30;;;19.30;71.40;;;;;;4207908;28;20555;-76
2022/07/10 12:12:12;;;;;;;6.10;1.27;;;19.60;67.90;;;;;;4186645;28;20214;-76
2022/07/10 12:14:16;;;;;;;3.93;1.20;;;19.80;64.30;;;;;;4197042;28;20367;-77
2022/07/10 12:16:19;;;;;;;3.57;0.90;;;20.20;65.00;;;;;;4190355;28;20207;-77
2022/07/10 12:18:23;;;;;;;4.03;1.00;;;20.60;59.70;;;;;;4203087;28;20701;-77
2022/07/10 12:20:26;;;;;;;3.50;1.10;;;20.80;52.00;;;;;;4205499;28;20229;-77
2022/07/10 12:22:28;;;;;;;3.07;0.90;;;20.90;52.40;;;;;;4206355;28;20206;-76
2022/07/10 12:24:30;;;;;;;1.60;0.80;;;20.80;52.30;;;;;;4206677;28;20221;-76
2022/07/10 12:26:34;;;;;;;4.90;1.30;;;20.80;52.80;;;;;;4196417;28;20214;-76
2022/07/10 12:28:52;;;;;;;4.17;1.00;;;20.60;50.50;;;;;;4204816;28;20198;-77
2022/07/10 12:30:54;;;;;;;3.20;1.30;;;20.60;49.70;;;;;;4183838;28;20207;-77
2022/07/10 12:33:06;;;;;;;3.60;1.20;;;20.50;50.10;;;;;;4202839;28;20586;-76
2022/07/10 12:35:14;;;;;;;3.87;1.37;;;20.50;52.00;;;;;;4201428;28;20300;-76
2022/07/10 12:37:16;;;;;;;4.50;1.23;;;20.50;50.20;;;;;;4200652;28;20206;-77
2022/07/10 12:39:21;;;;;;;4.80;1.50;;;20.40;51.10;;;;;;4203066;28;20222;-76
2022/07/10 12:41:26;;;;;;;2.87;1.10;;;20.40;51.10;;;;;;4204751;28;20209;-77
2022/07/10 12:43:29;;;;;;;3.27;1.07;;;20.40;51.70;;;;;;4205285;28;20608;-76
2022/07/10 12:45:31;;;;;;;3.20;1.37;;;20.50;50.30;;;;;;4204654;28;20259;-78
2022/07/10 12:47:44;;;;;;;4.73;1.33;;;20.80;51.00;;;;;;4203892;28;20256;-77
2022/07/10 12:49:54;;;;;;;5.37;1.57;;;20.90;48.50;;;;;;4203493;28;20202;-77
2022/07/10 12:51:58;;;;;;;2.97;0.80;;;21.20;46.70;;;;;;4204677;28;20366;-77
2022/07/10 12:54:00;;;;;;;5.23;1.17;;;21.30;46.20;;;;;;4198827;28;20237;-77
2022/07/10 12:56:02;;;;;;;3.00;1.00;;;21.60;46.50;;;;;;4184746;28;20297;-77
2022/07/10 12:58:08;;;;;;;6.27;1.17;;;22.10;47.90;;;;;;4199728;28;20639;-77
2022/07/10 13:00:13;;;;;;;3.87;0.90;;;22.20;43.60;;;;;;4197367;28;20194;-77
2022/07/10 13:02:17;;;;;;;4.77;0.93;;;22.30;43.90;;;;;;4200102;28;20710;-78
2022/07/10 13:04:25;;;;;;;5.33;1.47;;;22.30;44.00;;;;;;4189964;28;20233;-77
2022/07/10 13:06:28;;;;;;;7.30;1.20;;;22.20;43.80;;;;;;4204372;28;20219;-77
2022/07/10 13:08:45;;;;;;;4.87;1.30;;;22.00;43.60;;;;;;4208945;28;20204;-77